Terminal Aerodrome Forecast
Issued by NWS Tuscon, AZ

Home | Current Version | Previous Version | Text Only | Print | Product List | Glossary On
Versions: 1 2 3 4 5 6 7 8 9 10 11 12 13
944
FTUS45 KTWC 262320
TAFDUG
TAF
KDUG 262320Z 2700/2724 34009KT P6SM SCT060 BKN100
     FM270200 15010KT P6SM VCSH SCT050 BKN090
     FM270400 10006KT P6SM FEW060 SCT090
     FM271200 VRB03KT P6SM FEW100
     FM272000 25008KT P6SM VCSH SCT060 BKN100=

USA.gov is the U.S. government's official web portal to all federal, state and local government web resources and services.